createdAt,value
2018-09-26T00:01:38.370Z,0.44
2018-09-26T00:04:13.165Z,0.56
2018-09-26T00:06:42.383Z,0.33
2018-09-26T00:09:12.882Z,0.37
2018-09-26T00:11:42.107Z,0.34
2018-09-26T00:14:11.318Z,0.21
2018-09-26T00:16:40.609Z,0.26
2018-09-26T00:19:09.811Z,0.20
2018-09-26T00:21:39.056Z,0.22
2018-09-26T00:24:08.254Z,0.28
2018-09-26T00:26:37.610Z,0.29
2018-09-26T00:29:06.820Z,0.26
2018-09-26T00:31:36.052Z,0.29
2018-09-26T00:34:05.279Z,0.15
2018-09-26T00:36:34.466Z,0.08
2018-09-26T00:39:04.165Z,0.03
2018-09-26T00:41:33.375Z,0.02
2018-09-26T00:44:02.610Z,-0.07
2018-09-26T00:46:31.852Z,-0.09
2018-09-26T00:49:01.054Z,-0.08
2018-09-26T00:51:30.306Z,-0.13
2018-09-26T00:53:59.694Z,-0.20
2018-09-26T00:56:28.912Z,-0.22
2018-09-26T00:58:58.126Z,-0.24
2018-09-26T01:01:27.374Z,-0.24
2018-09-26T01:03:56.586Z,-0.34
2018-09-26T01:06:25.809Z,-0.39
2018-09-26T01:08:55.152Z,-0.44
2018-09-26T01:11:24.376Z,-0.37
2018-09-26T01:13:53.606Z,-0.37
2018-09-26T01:16:22.822Z,-0.38
2018-09-26T01:18:52.052Z,-0.48
2018-09-26T01:21:21.270Z,-0.51
2018-09-26T01:23:50.498Z,-0.45
2018-09-26T01:26:19.744Z,-0.38
2018-09-26T01:28:48.947Z,-0.28
2018-09-26T01:31:18.179Z,-0.21
2018-09-26T01:33:47.408Z,-0.11
2018-09-26T01:36:16.623Z,-0.11
2018-09-26T01:38:45.827Z,-0.15
2018-09-26T01:41:15.152Z,-0.12
2018-09-26T01:43:44.354Z,-0.21
2018-09-26T01:46:13.569Z,-0.28
2018-09-26T01:48:42.800Z,-0.34
2018-09-26T01:51:12.057Z,-0.34
2018-09-26T01:53:41.284Z,-0.27
2018-09-26T01:56:10.687Z,-0.14
2018-09-26T01:58:39.918Z,-0.21
2018-09-26T02:01:09.166Z,-0.21
2018-09-26T02:03:38.411Z,-0.27
2018-09-26T02:06:07.807Z,-0.29
2018-09-26T02:08:37.042Z,-0.25
2018-09-26T02:11:06.286Z,-0.28
2018-09-26T02:13:35.503Z,-0.18
2018-09-26T02:16:04.738Z,-0.18
2018-09-26T02:18:33.983Z,-0.18
2018-09-26T02:21:03.202Z,-0.23
2018-09-26T02:23:32.640Z,-0.30
2018-09-26T02:26:01.815Z,-0.18
2018-09-26T02:28:31.043Z,-0.29
2018-09-26T02:31:00.306Z,-0.21
2018-09-26T02:33:29.538Z,-0.16
2018-09-26T02:35:58.780Z,0.04
2018-09-26T02:38:28.015Z,0.03
2018-09-26T02:40:57.248Z,-0.11
2018-09-26T02:43:26.475Z,-0.37
2018-09-26T02:45:55.702Z,-0.50
2018-09-26T02:48:30.075Z,-0.57
2018-09-26T02:50:59.303Z,-0.42
2018-09-26T02:53:28.578Z,-0.36
2018-09-26T02:55:57.850Z,-0.74
2018-09-26T02:58:27.073Z,-0.76
2018-09-26T03:00:56.327Z,-0.80
2018-09-26T03:03:25.549Z,-0.69
2018-09-26T03:05:54.766Z,-0.58
2018-09-26T03:08:24.003Z,-0.70
2018-09-26T03:10:53.237Z,-0.78
2018-09-26T03:13:22.463Z,-0.74
2018-09-26T03:15:51.882Z,-0.64
2018-09-26T03:18:21.153Z,-0.82
2018-09-26T03:20:50.387Z,-0.91
2018-09-26T03:23:19.599Z,-0.93
2018-09-26T03:25:49.154Z,-0.97
2018-09-26T03:28:18.374Z,-0.99
2018-09-26T03:30:47.603Z,-0.98
2018-09-26T03:33:16.887Z,-1.03
2018-09-26T03:35:46.114Z,-1.05
2018-09-26T03:38:15.365Z,-0.95
2018-09-26T03:40:44.618Z,-0.88
2018-09-26T03:43:13.893Z,-1.08
2018-09-26T03:45:43.151Z,-1.17
2018-09-26T03:48:12.402Z,-1.19
2018-09-26T03:50:41.669Z,-1.16
2018-09-26T03:53:10.897Z,-1.05
2018-09-26T03:55:40.160Z,-1.02
2018-09-26T03:58:09.449Z,-1.05
2018-09-26T04:00:38.686Z,-1.03
2018-09-26T04:03:07.960Z,-1.06
2018-09-26T04:06:07.437Z,-1.06
2018-09-26T04:08:36.847Z,-1.03
2018-09-26T04:11:06.100Z,-1.07
2018-09-26T04:13:35.322Z,-0.91
2018-09-26T04:16:04.559Z,-0.90
2018-09-26T04:18:33.802Z,-0.99
2018-09-26T04:21:03.051Z,-1.02
2018-09-26T04:23:32.276Z,-1.15
2018-09-26T04:26:01.539Z,-1.21
2018-09-26T04:28:30.786Z,-1.27
2018-09-26T04:31:00.047Z,-1.32
2018-09-26T04:33:29.406Z,-1.29
2018-09-26T04:35:58.531Z,-1.27
2018-09-26T04:38:27.832Z,-1.38
2018-09-26T04:40:57.034Z,-1.35
2018-09-26T04:43:27.656Z,-1.38
2018-09-26T04:45:56.797Z,-1.32
2018-09-26T04:48:26.015Z,-1.40
2018-09-26T04:50:55.291Z,-1.47
2018-09-26T04:53:24.491Z,-1.40
2018-09-26T04:55:53.726Z,-1.39
2018-09-26T04:58:23.025Z,-1.33
2018-09-26T05:00:52.159Z,-1.35
2018-09-26T05:03:21.403Z,-1.29
2018-09-26T05:05:50.638Z,-1.25
2018-09-26T05:08:19.911Z,-1.32
2018-09-26T05:10:49.131Z,-1.26
2018-09-26T05:13:18.346Z,-1.16
2018-09-26T05:15:47.590Z,-1.15
2018-09-26T05:18:16.843Z,-1.09
2018-09-26T05:20:46.077Z,-1.00
2018-09-26T05:23:15.388Z,-0.91
2018-09-26T05:25:44.558Z,-0.75
2018-09-26T05:28:13.778Z,-0.69
2018-09-26T05:30:43.015Z,-0.57
2018-09-26T05:33:12.239Z,-0.50
2018-09-26T05:35:41.500Z,-0.37
2018-09-26T05:38:10.741Z,-0.30
2018-09-26T05:40:39.998Z,-0.11
2018-09-26T05:43:10.451Z,-0.01
2018-09-26T05:45:39.650Z,0.06
2018-09-26T05:48:08.887Z,0.26
2018-09-26T05:50:38.116Z,0.33
2018-09-26T05:53:07.339Z,0.51
2018-09-26T05:55:36.561Z,0.78
2018-09-26T05:58:05.794Z,0.71
2018-09-26T06:00:34.998Z,0.93
2018-09-26T06:03:04.275Z,1.35
2018-09-26T06:05:33.609Z,1.29
2018-09-26T06:08:02.723Z,1.13
2018-09-26T06:10:31.947Z,1.12
2018-09-26T06:13:01.187Z,0.93
2018-09-26T06:16:01.018Z,1.41
2018-09-26T06:18:30.226Z,2.12
2018-09-26T06:20:59.461Z,4.89
2018-09-26T06:23:28.715Z,5.38
2018-09-26T06:25:57.931Z,8.98
2018-09-26T06:28:27.167Z,12.15
2018-09-26T06:30:56.402Z,11.50
2018-09-26T06:33:25.647Z,8.51
2018-09-26T06:35:54.862Z,6.03
2018-09-26T06:38:24.089Z,5.11
2018-09-26T06:40:53.326Z,8.74
2018-09-26T06:43:22.562Z,13.52
2018-09-26T06:45:51.784Z,15.87
2018-09-26T06:48:20.998Z,16.44
2018-09-26T06:50:50.223Z,16.94
2018-09-26T06:53:19.470Z,15.41
2018-09-26T06:55:49.483Z,15.83
2018-09-26T06:58:18.698Z,14.65
2018-09-26T07:00:47.918Z,15.54
2018-09-26T07:03:17.159Z,17.15
2018-09-26T07:05:46.372Z,16.42
2018-09-26T07:08:15.623Z,17.29
2018-09-26T07:10:44.873Z,17.33
2018-09-26T07:13:14.250Z,17.50
2018-09-26T07:15:43.450Z,18.60
2018-09-26T07:18:12.691Z,19.66
2018-09-26T07:20:41.988Z,19.96
2018-09-26T07:23:11.206Z,19.52
2018-09-26T07:25:40.418Z,20.58
2018-09-26T07:28:09.646Z,21.11
2018-09-26T07:30:38.877Z,20.57
2018-09-26T07:33:08.186Z,20.20
2018-09-26T07:35:37.399Z,20.21
2018-09-26T07:38:06.638Z,19.49
2018-09-26T07:40:35.846Z,18.82
2018-09-26T07:43:05.099Z,18.09
2018-09-26T07:45:34.344Z,15.97
2018-09-26T07:48:03.534Z,13.64
2018-09-26T07:50:32.747Z,12.97
2018-09-26T07:53:01.977Z,13.34
2018-09-26T07:55:31.186Z,12.96
2018-09-26T07:58:00.403Z,15.24
2018-09-26T08:00:29.646Z,15.37
2018-09-26T08:02:58.875Z,16.39
2018-09-26T08:05:28.104Z,14.62
2018-09-26T08:07:57.319Z,14.76
2018-09-26T08:10:26.569Z,14.15
2018-09-26T08:12:55.794Z,15.38
2018-09-26T08:15:25.014Z,15.43
2018-09-26T08:17:54.273Z,18.73
2018-09-26T08:20:23.506Z,20.28
2018-09-26T08:22:52.743Z,21.11
2018-09-26T08:25:21.992Z,20.12
2018-09-26T08:27:51.235Z,19.20
2018-09-26T08:30:20.519Z,20.16
2018-09-26T08:32:49.726Z,20.02
2018-09-26T08:35:18.956Z,20.73
2018-09-26T08:37:48.182Z,21.08
2018-09-26T08:40:17.415Z,22.24
2018-09-26T08:42:46.673Z,23.89
2018-09-26T08:45:16.034Z,26.39
2018-09-26T08:47:45.249Z,27.49
2018-09-26T08:50:14.491Z,24.81
2018-09-26T08:52:43.731Z,20.73
2018-09-26T08:55:12.989Z,20.80
2018-09-26T08:57:42.207Z,21.30
2018-09-26T09:00:11.436Z,21.28
2018-09-26T09:02:40.659Z,22.21
2018-09-26T09:05:09.898Z,22.44
2018-09-26T09:07:39.129Z,22.75
2018-09-26T09:10:08.473Z,20.37
2018-09-26T09:12:37.710Z,22.34
2018-09-26T09:15:06.921Z,21.63
2018-09-26T09:17:36.183Z,23.05
2018-09-26T09:20:05.461Z,21.54
2018-09-26T09:22:34.685Z,22.55
2018-09-26T09:25:03.923Z,23.44
2018-09-26T09:27:33.257Z,22.17
2018-09-26T09:30:02.423Z,23.83
2018-09-26T09:35:06.173Z,27.60
2018-09-26T09:37:35.439Z,27.59
2018-09-26T09:40:04.702Z,26.12
2018-09-26T09:42:33.978Z,25.38
2018-09-26T09:45:03.202Z,24.52
2018-09-26T09:47:32.427Z,23.64
2018-09-26T09:50:01.639Z,23.83
2018-09-26T09:52:31.025Z,20.95
2018-09-26T09:55:00.503Z,22.81
2018-09-26T09:57:29.734Z,22.83
2018-09-26T09:59:58.946Z,23.40
2018-09-26T10:02:28.292Z,23.79
2018-09-26T10:04:57.392Z,25.36
2018-09-26T10:07:26.619Z,23.91
2018-09-26T10:09:57.066Z,22.51
2018-09-26T10:12:26.313Z,22.88
2018-09-26T10:14:55.535Z,24.78
2018-09-26T10:17:24.825Z,24.94
2018-09-26T10:19:54.163Z,25.29
2018-09-26T10:22:23.478Z,26.26
2018-09-26T10:24:52.685Z,26.89
2018-09-26T10:27:21.899Z,23.15
2018-09-26T10:29:51.122Z,23.82
2018-09-26T10:32:20.397Z,21.85
2018-09-26T10:34:49.575Z,26.22
2018-09-26T10:37:18.781Z,27.59
2018-09-26T10:39:48.006Z,24.81
2018-09-26T10:42:17.222Z,25.17
2018-09-26T10:44:46.436Z,22.93
2018-09-26T10:47:15.743Z,21.56
2018-09-26T10:49:45.139Z,21.75
2018-09-26T10:52:14.367Z,22.31
2018-09-26T10:54:43.603Z,23.16
2018-09-26T10:57:12.826Z,23.99
2018-09-26T10:59:42.083Z,24.99
2018-09-26T11:02:11.407Z,25.16
2018-09-26T11:04:40.521Z,25.52
2018-09-26T11:07:10.030Z,23.26
2018-09-26T11:09:39.263Z,23.24
2018-09-26T11:12:08.527Z,23.80
2018-09-26T11:14:37.754Z,23.29
2018-09-26T11:17:06.983Z,23.22
2018-09-26T11:19:36.225Z,22.81
2018-09-26T11:22:05.453Z,25.85
2018-09-26T11:24:34.699Z,25.60
2018-09-26T11:27:03.931Z,25.58
2018-09-26T11:29:33.399Z,27.72
2018-09-26T11:32:02.619Z,25.04
2018-09-26T11:34:33.111Z,24.68
2018-09-26T11:37:02.322Z,24.04
2018-09-26T11:39:31.551Z,23.94
2018-09-26T11:42:00.780Z,23.40
2018-09-26T11:44:30.035Z,23.26
2018-09-26T11:46:59.240Z,24.27
2018-09-26T11:49:28.475Z,24.64
2018-09-26T11:51:57.700Z,24.22
2018-09-26T11:54:27.077Z,24.11
2018-09-26T11:56:56.426Z,23.81
2018-09-26T11:59:25.655Z,23.57
2018-09-26T12:01:54.975Z,23.29
2018-09-26T12:04:24.227Z,23.91
2018-09-26T12:06:53.431Z,23.89
2018-09-26T12:09:22.651Z,24.29
2018-09-26T12:11:51.910Z,24.32
2018-09-26T12:14:21.143Z,23.92
2018-09-26T12:16:50.396Z,24.07
2018-09-26T12:19:19.651Z,24.13
2018-09-26T12:21:49.300Z,25.42
2018-09-26T12:24:18.522Z,26.46
2018-09-26T12:26:47.681Z,24.05
2018-09-26T12:29:16.894Z,22.26
2018-09-26T12:31:46.191Z,24.35
2018-09-26T12:34:15.702Z,24.48
2018-09-26T12:36:44.997Z,24.42
2018-09-26T12:39:14.223Z,25.84
2018-09-26T12:41:43.434Z,24.40
2018-09-26T12:44:12.659Z,23.58
2018-09-26T12:46:41.890Z,23.25
2018-09-26T12:49:17.762Z,22.87
2018-09-26T12:51:46.994Z,23.25
2018-09-26T12:54:16.235Z,23.31
2018-09-26T12:56:45.471Z,25.52
2018-09-26T12:59:14.693Z,23.23
2018-09-26T13:01:43.907Z,23.83
2018-09-26T13:04:13.174Z,24.79
2018-09-26T13:06:42.387Z,25.55
2018-09-26T13:09:11.598Z,25.33
2018-09-26T13:11:40.826Z,22.01
2018-09-26T13:14:10.121Z,24.93
2018-09-26T13:16:39.298Z,24.63
2018-09-26T13:19:08.632Z,23.47
2018-09-26T13:21:37.766Z,21.66
2018-09-26T13:24:07.025Z,20.82
2018-09-26T13:26:36.258Z,20.44
2018-09-26T13:29:05.484Z,20.21
2018-09-26T13:31:34.776Z,20.18
2018-09-26T13:34:04.248Z,20.32
2018-09-26T13:36:33.471Z,20.01
2018-09-26T13:39:02.744Z,19.36
2018-09-26T13:41:31.944Z,20.02
2018-09-26T13:44:01.158Z,20.13
2018-09-26T13:46:30.564Z,19.51
2018-09-26T13:49:00.460Z,19.87
2018-09-26T13:51:29.695Z,19.41
2018-09-26T13:53:58.968Z,19.54
2018-09-26T13:56:28.164Z,19.41
2018-09-26T13:58:57.386Z,19.30
2018-09-26T14:01:26.686Z,19.26
2018-09-26T14:03:55.874Z,19.58
2018-09-26T14:06:25.123Z,19.07
2018-09-26T14:08:54.350Z,18.98
2018-09-26T14:11:23.603Z,18.83
2018-09-26T14:13:53.018Z,18.88
2018-09-26T14:16:22.281Z,18.65
2018-09-26T14:18:51.503Z,18.82
2018-09-26T14:21:35.827Z,18.89
2018-09-26T14:24:05.288Z,19.27
2018-09-26T14:26:34.705Z,19.48
2018-09-26T14:29:04.059Z,19.26
2018-09-26T14:31:34.629Z,19.41
2018-09-26T14:34:03.957Z,19.29
2018-09-26T14:36:33.274Z,19.14
2018-09-26T14:39:02.688Z,19.05
2018-09-26T14:41:31.953Z,18.88
2018-09-26T14:44:01.292Z,19.00
2018-09-26T14:46:30.611Z,18.94
2018-09-26T14:48:59.927Z,18.79
2018-09-26T14:51:29.226Z,18.88
2018-09-26T14:53:58.642Z,18.70
2018-09-26T14:56:28.050Z,18.79
2018-09-26T14:58:57.295Z,18.94
2018-09-26T15:01:27.471Z,18.89
2018-09-26T15:03:56.864Z,18.43
2018-09-26T15:06:26.269Z,18.27
2018-09-26T15:13:53.864Z,18.09
2018-09-26T15:16:23.239Z,18.28
2018-09-26T15:18:52.522Z,18.30
2018-09-26T15:21:21.854Z,18.41
2018-09-26T15:23:51.199Z,18.46
2018-09-26T15:26:20.591Z,18.22
2018-09-26T15:28:49.974Z,18.06
2018-09-26T15:31:19.427Z,17.99
2018-09-26T15:33:48.787Z,18.01
2018-09-26T15:36:18.168Z,17.95
2018-09-26T15:38:47.480Z,17.93
2018-09-26T15:41:17.839Z,17.82
2018-09-26T15:43:47.177Z,17.85
2018-09-26T15:46:16.527Z,17.65
2018-09-26T15:48:45.842Z,17.64
2018-09-26T15:51:15.167Z,17.70
2018-09-26T15:53:44.471Z,17.53
2018-09-26T15:56:13.812Z,17.66
2018-09-26T15:58:43.111Z,17.61
2018-09-26T16:01:12.442Z,17.31
2018-09-26T16:03:41.705Z,17.43
2018-09-26T16:06:12.250Z,17.33
2018-09-26T16:08:41.455Z,17.32
2018-09-26T16:11:10.750Z,17.13
2018-09-26T16:13:39.999Z,17.21
2018-09-26T16:16:09.239Z,17.18
2018-09-26T16:18:38.463Z,16.96
2018-09-26T16:21:08.399Z,16.88
2018-09-26T16:23:37.635Z,16.57
2018-09-26T16:26:06.940Z,16.39
2018-09-26T16:28:36.129Z,16.16
2018-09-26T16:31:05.351Z,16.31
2018-09-26T16:33:34.742Z,16.37
2018-09-26T16:36:03.964Z,15.88
2018-09-26T16:38:33.194Z,15.90
2018-09-26T16:41:02.443Z,15.34
2018-09-26T16:43:31.675Z,14.82
2018-09-26T16:46:00.912Z,14.36
2018-09-26T16:48:30.134Z,14.06
2018-09-26T16:50:59.346Z,13.80
2018-09-26T16:53:28.594Z,13.75
2018-09-26T16:55:57.924Z,13.28
2018-09-26T16:58:27.304Z,13.03
2018-09-26T17:00:56.514Z,13.20
2018-09-26T17:03:25.735Z,13.28
2018-09-26T17:05:54.966Z,13.15
2018-09-26T17:08:24.268Z,12.93
2018-09-26T17:10:53.419Z,12.60
2018-09-26T17:13:22.626Z,12.22
2018-09-26T17:15:51.846Z,11.91
2018-09-26T17:18:21.936Z,11.84
2018-09-26T17:20:51.123Z,11.76
2018-09-26T17:23:20.345Z,11.52
2018-09-26T17:25:49.568Z,11.31
2018-09-26T17:28:18.971Z,11.24
2018-09-26T17:30:48.168Z,11.00
2018-09-26T17:33:17.375Z,10.88
2018-09-26T17:35:46.603Z,10.79
2018-09-26T17:38:15.831Z,10.66
2018-09-26T17:40:45.066Z,10.64
2018-09-26T17:43:14.364Z,10.68
2018-09-26T17:45:43.514Z,10.55
2018-09-26T17:48:12.764Z,10.35
2018-09-26T17:50:41.955Z,10.48
2018-09-26T17:53:11.179Z,10.52
2018-09-26T17:55:40.392Z,10.27
2018-09-26T17:58:09.650Z,10.11
2018-09-26T18:00:38.855Z,10.18
2018-09-26T18:03:08.338Z,10.17
2018-09-26T18:05:37.538Z,9.93
2018-09-26T18:08:06.747Z,9.74
2018-09-26T18:10:35.974Z,9.54
2018-09-26T18:13:05.227Z,9.44
2018-09-26T18:15:34.431Z,9.48
2018-09-26T18:18:03.676Z,9.35
2018-09-26T18:20:33.035Z,9.30
2018-09-26T18:23:02.186Z,9.30
2018-09-26T18:25:31.401Z,9.22
2018-09-26T18:28:00.704Z,9.04
2018-09-26T18:30:31.070Z,9.25
2018-09-26T18:33:00.332Z,9.20
2018-09-26T18:35:29.486Z,8.91
2018-09-26T18:37:58.706Z,9.09
2018-09-26T18:40:27.930Z,9.14
2018-09-26T18:42:57.323Z,8.82
2018-09-26T18:45:26.580Z,8.66
2018-09-26T18:47:55.795Z,8.93
2018-09-26T18:50:25.015Z,8.66
2018-09-26T18:52:54.372Z,8.68
2018-09-26T18:55:23.567Z,8.83
2018-09-26T18:57:52.779Z,8.66
2018-09-26T19:00:21.986Z,8.45
2018-09-26T19:02:51.253Z,8.35
2018-09-26T19:05:20.410Z,8.30
2018-09-26T19:07:49.623Z,8.16
2018-09-26T19:10:18.836Z,8.14
2018-09-26T19:12:48.034Z,8.10
2018-09-26T19:15:17.307Z,8.10
2018-09-26T19:17:46.515Z,8.11
2018-09-26T19:20:15.982Z,8.12
2018-09-26T19:22:45.229Z,8.18
2018-09-26T19:25:14.451Z,8.13
2018-09-26T19:27:43.900Z,8.13
2018-09-26T19:30:13.784Z,8.11
2018-09-26T19:32:43.009Z,8.07
2018-09-26T19:35:12.226Z,7.97
2018-09-26T19:37:41.451Z,7.83
2018-09-26T19:40:10.677Z,7.77
2018-09-26T19:42:39.898Z,8.12
2018-09-26T19:45:09.141Z,7.85
2018-09-26T19:47:38.343Z,7.70
2018-09-26T19:50:07.551Z,7.75
2018-09-26T19:52:37.001Z,7.66
2018-09-26T19:55:06.190Z,7.54
2018-09-26T19:57:35.394Z,7.48
2018-09-26T20:00:04.679Z,7.41
2018-09-26T20:02:33.894Z,7.39
2018-09-26T20:05:03.217Z,7.55
2018-09-26T20:07:32.425Z,7.68
2018-09-26T20:10:01.651Z,7.52
2018-09-26T20:12:30.854Z,7.42
2018-09-26T20:15:00.094Z,7.33
2018-09-26T20:17:29.331Z,7.29
2018-09-26T20:19:58.541Z,7.22
2018-09-26T20:22:27.765Z,7.20
2018-09-26T20:24:57.015Z,7.17
2018-09-26T20:27:26.233Z,7.33
2018-09-26T20:29:56.313Z,7.32
2018-09-26T20:32:25.510Z,7.24
2018-09-26T20:34:54.808Z,7.27
2018-09-26T20:37:23.957Z,7.16
2018-09-26T20:39:53.210Z,7.06
2018-09-26T20:42:22.447Z,6.98
2018-09-26T20:44:51.690Z,6.89
2018-09-26T20:47:20.932Z,6.82
2018-09-26T20:49:50.159Z,6.81
2018-09-26T20:52:19.364Z,6.79
2018-09-26T20:54:48.720Z,6.76
2018-09-26T20:57:18.198Z,6.73
2018-09-26T20:59:47.406Z,6.65
2018-09-26T21:02:16.643Z,6.57
2018-09-26T21:04:45.859Z,6.62
2018-09-26T21:07:15.169Z,6.68
2018-09-26T21:09:44.414Z,6.58
2018-09-26T21:12:13.640Z,6.50
2018-09-26T21:14:42.879Z,6.50
2018-09-26T21:17:12.172Z,6.47
2018-09-26T21:19:41.415Z,6.43
2018-09-26T21:22:10.690Z,6.52
2018-09-26T21:24:39.917Z,6.36
2018-09-26T21:27:09.152Z,6.62
2018-09-26T21:29:38.399Z,6.46
2018-09-26T21:32:07.603Z,6.57
2018-09-26T21:34:36.830Z,6.45
2018-09-26T21:37:06.045Z,6.30
2018-09-26T21:39:35.260Z,6.20
2018-09-26T21:42:04.745Z,6.23
2018-09-26T21:44:33.963Z,6.12
2018-09-26T21:47:03.359Z,6.09
2018-09-26T21:49:32.578Z,6.04
2018-09-26T21:52:01.812Z,5.97
2018-09-26T21:54:31.059Z,5.93
2018-09-26T21:57:00.295Z,5.92
2018-09-26T21:59:29.515Z,5.90
2018-09-26T22:01:58.739Z,5.88
2018-09-26T22:04:28.013Z,5.95
2018-09-26T22:06:57.219Z,5.82
2018-09-26T22:09:26.499Z,5.80
2018-09-26T22:11:55.666Z,5.71
2018-09-26T22:14:24.879Z,5.66
2018-09-26T22:16:54.103Z,5.60
2018-09-26T22:19:23.575Z,5.60
2018-09-26T22:21:52.786Z,5.64
2018-09-26T22:24:22.031Z,5.61
2018-09-26T22:26:51.270Z,5.79
2018-09-26T22:29:20.487Z,5.60
2018-09-26T22:31:49.722Z,5.88
2018-09-26T22:34:18.939Z,5.70
2018-09-26T22:36:48.180Z,5.60
2018-09-26T22:39:17.403Z,5.58
2018-09-26T22:41:47.867Z,5.52
2018-09-26T22:44:17.091Z,5.44
2018-09-26T22:46:46.320Z,5.43
2018-09-26T22:49:15.543Z,5.33
2018-09-26T22:51:44.775Z,5.34
2018-09-26T22:54:13.997Z,5.31
2018-09-26T22:56:43.330Z,5.29
2018-09-26T22:59:12.559Z,5.18
2018-09-26T23:01:41.766Z,5.15
2018-09-26T23:04:11.043Z,5.12
2018-09-26T23:06:40.278Z,5.20
2018-09-26T23:09:11.131Z,5.13
2018-09-26T23:11:40.390Z,5.07
2018-09-26T23:14:09.771Z,5.02
2018-09-26T23:16:39.004Z,4.96
2018-09-26T23:19:08.262Z,4.94
2018-09-26T23:21:37.474Z,4.90
2018-09-26T23:24:06.878Z,4.81
2018-09-26T23:26:36.107Z,4.78
2018-09-26T23:29:05.317Z,4.69
2018-09-26T23:31:34.546Z,4.63
2018-09-26T23:34:03.891Z,4.72
2018-09-26T23:36:33.146Z,4.84
2018-09-26T23:39:02.381Z,4.67
2018-09-26T23:41:31.582Z,4.60
2018-09-26T23:44:00.820Z,4.51
2018-09-26T23:46:30.047Z,4.44
2018-09-26T23:48:59.273Z,4.36
2018-09-26T23:51:28.475Z,4.27
2018-09-26T23:53:58.045Z,4.21
2018-09-26T23:56:27.275Z,4.15
2018-09-26T23:58:56.639Z,4.17
